Aliquippa, Pennsylvania
Current Conditions -  °F | °C
As of 7:51 PM on Wednesday 22 Oct 2014 (Local Time) from KPIT Reporting Station
Overcast Overcast  
Wind Chill: 44°   Ceiling: 1700
Heat Index: 48°   Visibility: 10mi
Dew Point: 41°   Wind: 9mph
Humidity: 77%   Direction: 350°N
Pressure: 30.18"   Gusts: NA
Location:  40.62°N, 80.24°W
Report Text: KPIT 222351Z 35008KT 10SM OVC017 09/05 A3018 RMK AO2 SLP232 T00890050 10094 20089 51005
Loading
Personal Weather Stations






























Interactive Weather Map New forecast layout! Learn more

10-Day Weather Forecast

Advertisements
Track Severe Weather on mobile